createdAt,value
2023-03-01T00:01:57.399Z,7.68
2023-03-01T00:04:00.823Z,8.15
2023-03-01T00:06:03.911Z,8.02
2023-03-01T00:08:06.770Z,8.55
2023-03-01T00:10:10.851Z,8.73
2023-03-01T00:12:13.598Z,8.70
2023-03-01T00:14:17.296Z,7.43
2023-03-01T00:16:23.990Z,8.45
2023-03-01T00:18:26.650Z,7.82
2023-03-01T00:20:31.207Z,8.07
2023-03-01T00:22:33.849Z,8.68
2023-03-01T00:24:36.511Z,8.88
2023-03-01T00:26:39.385Z,8.10
2023-03-01T00:28:42.060Z,8.52
2023-03-01T00:30:44.897Z,9.15
2023-03-01T00:32:48.961Z,8.52
2023-03-01T00:34:55.877Z,7.68
2023-03-01T00:37:05.910Z,8.23
2023-03-01T00:39:13.336Z,8.55
2023-03-01T00:41:18.876Z,8.23
2023-03-01T00:43:21.812Z,8.88
2023-03-01T00:45:24.959Z,8.10
2023-03-01T00:47:27.560Z,9.10
2023-03-01T00:49:31.616Z,8.80
2023-03-01T00:51:34.559Z,9.25
2023-03-01T00:53:37.832Z,9.13
2023-03-01T00:55:40.478Z,8.60
2023-03-01T00:57:43.094Z,8.82
2023-03-01T00:59:45.740Z,8.85
2023-03-01T01:01:48.397Z,8.68
2023-03-01T01:03:53.282Z,8.85
2023-03-01T01:05:57.322Z,8.50
2023-03-01T01:07:59.995Z,8.88
2023-03-01T01:10:03.008Z,10.00
2023-03-01T01:12:05.961Z,9.25
2023-03-01T01:14:08.612Z,8.93
2023-03-01T01:16:11.335Z,8.77
2023-03-01T01:18:14.235Z,10.05
2023-03-01T01:20:16.996Z,9.02
2023-03-01T01:22:21.001Z,9.32
2023-03-01T01:24:23.693Z,10.13
2023-03-01T01:26:29.476Z,9.68
2023-03-01T01:28:32.666Z,9.55
2023-03-01T01:30:35.382Z,8.95
2023-03-01T01:32:38.067Z,8.95
2023-03-01T01:34:41.351Z,9.20
2023-03-01T01:36:44.642Z,9.00
2023-03-01T01:38:48.634Z,9.85
2023-03-01T01:40:52.285Z,9.48
2023-03-01T01:42:54.913Z,8.77
2023-03-01T01:45:33.964Z,9.60
2023-03-01T01:47:36.901Z,9.35
2023-03-01T01:49:44.088Z,9.05
2023-03-01T01:51:49.313Z,11.00
2023-03-01T01:53:57.952Z,9.90
2023-03-01T01:56:03.470Z,9.23
2023-03-01T01:58:08.764Z,9.98
2023-03-01T02:00:15.074Z,10.32
2023-03-01T02:02:18.085Z,10.02
2023-03-01T02:04:21.307Z,10.50
2023-03-01T02:06:30.351Z,8.80
2023-03-01T02:08:37.274Z,10.48
2023-03-01T02:10:42.513Z,9.00
2023-03-01T02:12:45.189Z,9.35
2023-03-01T02:14:47.809Z,10.80
2023-03-01T02:16:51.024Z,9.73
2023-03-01T02:18:54.510Z,10.95
2023-03-01T02:21:10.404Z,10.35
2023-03-01T02:23:13.499Z,8.68
2023-03-01T02:25:27.608Z,8.98
2023-03-01T02:27:38.932Z,9.18
2023-03-01T02:29:44.851Z,8.90
2023-03-01T02:31:46.590Z,10.13
2023-03-01T02:33:50.230Z,9.50
2023-03-01T02:35:54.558Z,9.93
2023-03-01T02:37:58.062Z,8.57
2023-03-01T02:40:06.424Z,9.98
2023-03-01T02:42:11.652Z,9.95
2023-03-01T02:44:14.544Z,9.32
2023-03-01T02:46:20.929Z,9.77
2023-03-01T02:48:23.565Z,11.85
2023-03-01T02:50:49.153Z,9.82
2023-03-01T02:53:00.680Z,8.82
2023-03-01T02:55:06.836Z,10.15
2023-03-01T02:57:11.156Z,9.20
2023-03-01T02:59:14.261Z,10.02
2023-03-01T03:01:18.276Z,9.65
2023-03-01T03:03:23.263Z,9.77
2023-03-01T03:05:27.963Z,9.32
2023-03-01T03:07:30.801Z,8.60
2023-03-01T03:09:33.450Z,10.73
2023-03-01T03:11:37.667Z,9.23
2023-03-01T03:13:48.903Z,9.70
2023-03-01T03:15:51.688Z,10.50
2023-03-01T03:17:56.425Z,9.35
2023-03-01T03:19:59.076Z,7.78
2023-03-01T03:22:02.780Z,9.85
2023-03-01T03:24:06.344Z,9.23
2023-03-01T03:26:08.918Z,10.15
2023-03-01T03:28:11.593Z,10.57
2023-03-01T03:30:16.862Z,9.05
2023-03-01T03:32:19.567Z,9.35
2023-03-01T03:34:24.215Z,10.15
2023-03-01T03:36:26.906Z,10.45
2023-03-01T03:38:29.525Z,9.18
2023-03-01T03:40:35.368Z,9.60
2023-03-01T03:42:38.029Z,11.05
2023-03-01T03:44:40.685Z,11.07
2023-03-01T03:46:43.312Z,10.20
2023-03-01T03:48:47.361Z,10.55
2023-03-01T03:50:53.455Z,9.15
2023-03-01T03:52:56.129Z,11.30
2023-03-01T03:54:58.807Z,11.18
2023-03-01T03:57:01.450Z,10.63
2023-03-01T03:59:04.273Z,9.85
2023-03-01T04:01:07.109Z,10.77
2023-03-01T04:03:10.535Z,9.43
2023-03-01T04:05:16.145Z,11.25
2023-03-01T04:07:20.124Z,12.80
2023-03-01T04:09:22.806Z,11.45
2023-03-01T04:11:28.227Z,10.23
2023-03-01T04:13:30.842Z,10.15
2023-03-01T04:15:34.415Z,10.85
2023-03-01T04:17:37.186Z,10.15
2023-03-01T04:19:39.806Z,10.88
2023-03-01T04:21:42.429Z,9.32
2023-03-01T04:23:46.400Z,9.70
2023-03-01T04:25:54.972Z,11.55
2023-03-01T04:27:57.636Z,11.98
2023-03-01T04:30:00.216Z,10.88
2023-03-01T04:32:04.052Z,11.27
2023-03-01T04:34:06.722Z,11.68
2023-03-01T04:36:10.767Z,11.07
2023-03-01T04:38:13.863Z,11.30
2023-03-01T04:40:18.511Z,10.68
2023-03-01T04:42:21.303Z,12.55
2023-03-01T04:44:24.182Z,9.25
2023-03-01T04:46:27.450Z,10.95
2023-03-01T04:48:30.233Z,11.40
2023-03-01T04:50:34.040Z,10.23
2023-03-01T04:52:36.943Z,11.23
2023-03-01T04:54:39.570Z,10.02
2023-03-01T04:56:43.560Z,11.13
2023-03-01T04:58:47.114Z,10.38
2023-03-01T05:03:19.144Z,11.40
2023-03-01T05:05:26.454Z,11.85
2023-03-01T05:07:29.316Z,11.65
2023-03-01T05:09:31.941Z,10.25
2023-03-01T05:11:36.843Z,11.85
2023-03-01T05:13:42.227Z,10.43
2023-03-01T05:15:44.846Z,11.75
2023-03-01T05:17:47.868Z,9.95
2023-03-01T05:19:50.969Z,11.50
2023-03-01T05:22:06.040Z,12.02
2023-03-01T05:24:12.650Z,11.85
2023-03-01T05:26:39.370Z,11.52
2023-03-01T05:28:40.569Z,11.65
2023-03-01T05:30:44.565Z,9.75
2023-03-01T05:32:50.332Z,10.90
2023-03-01T05:34:53.201Z,10.98
2023-03-01T05:36:56.318Z,11.65
2023-03-01T05:38:59.001Z,10.55
2023-03-01T05:41:01.701Z,11.32
2023-03-01T05:43:06.129Z,11.07
2023-03-01T05:45:10.582Z,11.70
2023-03-01T05:47:14.603Z,11.02
2023-03-01T05:49:17.998Z,11.15
2023-03-01T05:51:20.837Z,11.43
2023-03-01T05:53:23.531Z,10.88
2023-03-01T05:55:28.171Z,11.88
2023-03-01T05:57:31.743Z,10.07
2023-03-01T05:59:34.498Z,11.35
2023-03-01T06:01:37.504Z,11.30
2023-03-01T06:03:41.518Z,11.45
2023-03-01T06:05:44.790Z,11.73
2023-03-01T06:07:47.666Z,11.45
2023-03-01T06:09:50.246Z,11.98
2023-03-01T06:11:52.957Z,10.80
2023-03-01T06:13:55.717Z,11.77
2023-03-01T06:15:58.412Z,10.60
2023-03-01T06:18:01.060Z,11.52
2023-03-01T06:20:05.967Z,10.63
2023-03-01T06:22:09.240Z,10.43
2023-03-01T06:24:11.880Z,12.43
2023-03-01T06:26:14.533Z,10.45
2023-03-01T06:28:17.458Z,11.98
2023-03-01T06:30:22.626Z,11.68
2023-03-01T06:32:25.290Z,11.23
2023-03-01T06:34:28.008Z,10.77
2023-03-01T06:36:32.453Z,11.27
2023-03-01T06:38:35.284Z,11.20
2023-03-01T06:40:37.941Z,12.40
2023-03-01T06:42:42.711Z,11.85
2023-03-01T06:44:46.750Z,10.57
2023-03-01T06:46:49.397Z,12.05
2023-03-01T06:48:53.419Z,11.57
2023-03-01T06:50:56.141Z,11.43
2023-03-01T06:53:00.649Z,11.70
2023-03-01T06:55:03.920Z,11.27
2023-03-01T06:57:06.563Z,11.73
2023-03-01T06:59:09.238Z,11.65
2023-03-01T07:01:11.916Z,9.98
2023-03-01T07:03:14.622Z,12.38
2023-03-01T07:05:17.497Z,12.80
2023-03-01T07:07:21.000Z,12.07
2023-03-01T07:09:25.378Z,11.38
2023-03-01T07:11:28.070Z,12.45
2023-03-01T07:13:30.940Z,12.30
2023-03-01T07:15:33.860Z,11.10
2023-03-01T07:17:36.542Z,13.07
2023-03-01T07:19:39.196Z,13.57
2023-03-01T07:21:41.813Z,13.10
2023-03-01T07:23:45.023Z,10.75
2023-03-01T07:25:55.006Z,11.32
2023-03-01T07:27:57.669Z,12.02
2023-03-01T07:30:00.277Z,10.35
2023-03-01T07:32:03.018Z,12.30
2023-03-01T07:34:05.729Z,13.05
2023-03-01T07:36:09.016Z,12.63
2023-03-01T07:38:11.752Z,12.23
2023-03-01T07:40:14.979Z,12.50
2023-03-01T07:42:19.204Z,11.45
2023-03-01T07:44:21.989Z,12.25
2023-03-01T07:46:24.757Z,11.70
2023-03-01T07:48:27.465Z,10.98
2023-03-01T07:50:30.117Z,11.27
2023-03-01T07:52:32.800Z,11.27
2023-03-01T07:54:35.897Z,12.32
2023-03-01T07:56:38.555Z,11.20
2023-03-01T07:58:44.251Z,12.05
2023-03-01T08:00:46.839Z,12.48
2023-03-01T08:02:49.455Z,11.73
2023-03-01T08:04:52.052Z,11.43
2023-03-01T08:06:55.193Z,11.00
2023-03-01T08:08:59.346Z,11.80
2023-03-01T08:11:03.740Z,10.93
2023-03-01T08:13:06.480Z,12.65
2023-03-01T08:15:11.857Z,11.02
2023-03-01T08:17:15.794Z,10.95
2023-03-01T08:19:18.665Z,10.70
2023-03-01T08:21:21.329Z,10.70
2023-03-01T08:23:24.046Z,11.32
2023-03-01T08:25:26.898Z,11.23
2023-03-01T08:27:29.708Z,11.90
2023-03-01T08:29:32.773Z,11.98
2023-03-01T08:31:39.249Z,10.63
2023-03-01T08:33:42.081Z,10.93
2023-03-01T08:35:44.880Z,11.45
2023-03-01T08:37:47.570Z,11.18
2023-03-01T08:39:50.326Z,9.63
2023-03-01T08:41:53.190Z,10.35
2023-03-01T08:43:59.741Z,10.48
2023-03-01T08:46:02.742Z,10.93
2023-03-01T08:48:07.048Z,11.48
2023-03-01T08:50:11.061Z,10.43
2023-03-01T08:52:13.744Z,10.98
2023-03-01T08:54:18.994Z,10.75
2023-03-01T08:56:22.603Z,10.15
2023-03-01T08:58:25.274Z,11.63
2023-03-01T09:00:29.000Z,11.05
2023-03-01T09:02:31.737Z,12.07
2023-03-01T09:04:35.837Z,11.38
2023-03-01T09:06:38.948Z,10.60
2023-03-01T09:08:44.029Z,11.05
2023-03-01T09:10:46.977Z,11.50
2023-03-01T09:12:49.704Z,11.38
2023-03-01T09:14:52.448Z,11.13
2023-03-01T09:16:55.230Z,10.43
2023-03-01T09:18:57.928Z,11.45
2023-03-01T09:21:08.323Z,10.48
2023-03-01T09:23:11.035Z,10.48
2023-03-01T09:25:13.698Z,11.23
2023-03-01T09:27:19.569Z,9.63
2023-03-01T09:29:22.393Z,10.82
2023-03-01T09:31:26.227Z,11.50
2023-03-01T09:33:29.614Z,10.23
2023-03-01T09:35:32.372Z,10.70
2023-03-01T09:37:38.303Z,10.30
2023-03-01T09:39:40.944Z,10.43
2023-03-01T09:41:50.863Z,10.77
2023-03-01T09:43:58.863Z,11.38
2023-03-01T09:46:06.624Z,11.43
2023-03-01T09:48:17.579Z,11.88
2023-03-01T09:50:22.029Z,10.95
2023-03-01T09:52:30.634Z,11.30
2023-03-01T09:54:34.689Z,10.30
2023-03-01T09:56:42.169Z,11.07
2023-03-01T09:58:53.498Z,10.70
2023-03-01T10:00:59.995Z,10.85
2023-03-01T10:03:11.583Z,10.15
2023-03-01T10:05:45.597Z,12.27
2023-03-01T10:07:56.725Z,10.07
2023-03-01T10:10:02.174Z,10.90
2023-03-01T10:12:10.221Z,10.70
2023-03-01T10:14:29.700Z,10.30
2023-03-01T10:16:43.757Z,11.63
2023-03-01T10:18:51.737Z,11.27
2023-03-01T10:20:56.888Z,10.95
2023-03-01T10:22:59.621Z,10.60
2023-03-01T10:25:05.625Z,10.45
2023-03-01T10:27:14.895Z,10.85
2023-03-01T10:29:17.901Z,10.13
2023-03-01T10:31:29.246Z,11.20
2023-03-01T10:33:34.890Z,11.65
2023-03-01T10:35:37.833Z,10.38
2023-03-01T10:37:58.378Z,10.77
2023-03-01T10:40:09.133Z,11.15
2023-03-01T10:42:24.726Z,10.27
2023-03-01T10:44:46.230Z,11.35
2023-03-01T10:47:01.456Z,10.52
2023-03-01T10:49:14.016Z,10.93
2023-03-01T10:51:21.165Z,10.77
2023-03-01T10:53:27.932Z,10.50
2023-03-01T10:55:36.824Z,10.85
2023-03-01T10:57:42.864Z,10.73
2023-03-01T10:59:45.848Z,11.43
2023-03-01T11:02:07.034Z,10.23
2023-03-01T11:04:17.138Z,11.95
2023-03-01T11:06:24.137Z,11.00
2023-03-01T11:08:39.539Z,12.18
2023-03-01T11:10:43.663Z,10.77
2023-03-01T11:12:46.352Z,11.15
2023-03-01T11:14:50.282Z,10.88
2023-03-01T11:17:01.064Z,9.95
2023-03-01T11:19:19.118Z,9.55
2023-03-01T11:21:21.999Z,9.70
2023-03-01T11:23:25.920Z,10.05
2023-03-01T11:25:33.692Z,10.77
2023-03-01T11:27:43.860Z,10.05
2023-03-01T11:29:52.107Z,9.60
2023-03-01T11:31:59.658Z,10.63
2023-03-01T11:34:12.292Z,10.55
2023-03-01T11:36:30.743Z,11.15
2023-03-01T11:38:37.564Z,10.13
2023-03-01T11:42:57.961Z,10.00
2023-03-01T11:45:03.954Z,10.60
2023-03-01T11:47:26.226Z,9.45
2023-03-01T11:49:48.468Z,9.18
2023-03-01T11:51:59.604Z,10.00
2023-03-01T11:54:11.827Z,10.10
2023-03-01T11:56:30.743Z,10.25
2023-03-01T11:58:53.579Z,10.10
2023-03-01T12:01:10.099Z,9.90
2023-03-01T12:03:29.722Z,9.93
2023-03-01T12:05:54.398Z,9.88
2023-03-01T12:10:25.367Z,9.18
2023-03-01T12:12:39.619Z,10.10
2023-03-01T12:15:02.080Z,9.50
2023-03-01T12:17:16.693Z,10.43
2023-03-01T12:19:35.214Z,9.40
2023-03-01T12:21:55.491Z,10.40
2023-03-01T12:24:17.198Z,9.50
2023-03-01T12:26:33.218Z,10.32
2023-03-01T12:29:12.899Z,10.13
2023-03-01T12:31:46.305Z,9.82
2023-03-01T12:33:59.110Z,9.43
2023-03-01T12:38:31.900Z,9.07
2023-03-01T12:40:59.514Z,8.38
2023-03-01T12:43:16.226Z,10.23
2023-03-01T12:45:34.551Z,10.55
2023-03-01T12:48:00.355Z,8.93
2023-03-01T12:50:08.192Z,9.38
2023-03-01T12:52:17.121Z,9.48
2023-03-01T12:54:28.042Z,9.20
2023-03-01T12:56:33.339Z,10.57
2023-03-01T12:58:49.678Z,9.48
2023-03-01T13:01:07.665Z,8.82
2023-03-01T13:03:25.159Z,9.88
2023-03-01T13:05:41.506Z,9.20
2023-03-01T13:07:52.832Z,9.05
2023-03-01T13:10:16.750Z,9.32
2023-03-01T13:12:45.579Z,10.75
2023-03-01T13:14:48.497Z,9.80
2023-03-01T13:16:52.192Z,10.10
2023-03-01T13:19:08.885Z,9.63
2023-03-01T13:21:11.628Z,9.00
2023-03-01T13:23:26.397Z,8.38
2023-03-01T13:25:34.703Z,9.38
2023-03-01T13:27:46.413Z,8.98
2023-03-01T13:29:50.833Z,9.40
2023-03-01T13:32:04.586Z,9.07
2023-03-01T13:34:42.432Z,8.20
2023-03-01T13:36:49.642Z,8.90
2023-03-01T13:38:59.103Z,8.82
2023-03-01T13:41:02.351Z,8.55
2023-03-01T13:43:30.517Z,9.45
2023-03-01T13:45:40.578Z,8.80
2023-03-01T13:47:44.852Z,8.70
2023-03-01T13:49:52.565Z,8.57
2023-03-01T13:51:55.310Z,8.77
2023-03-01T13:54:00.404Z,8.25
2023-03-01T13:56:08.815Z,9.20
2023-03-01T13:58:22.993Z,8.40
2023-03-01T14:00:38.278Z,7.90
2023-03-01T14:02:42.447Z,8.57
2023-03-01T14:04:45.176Z,10.20
2023-03-01T14:06:49.259Z,11.18
2023-03-01T14:09:03.432Z,10.80
2023-03-01T14:11:41.628Z,10.48
2023-03-01T14:13:56.892Z,10.45
2023-03-01T14:16:14.197Z,10.40
2023-03-01T14:18:24.815Z,11.10
2023-03-01T14:20:29.810Z,11.15
2023-03-01T14:22:36.558Z,10.35
2023-03-01T14:26:43.871Z,10.43
2023-03-01T14:28:46.691Z,11.00
2023-03-01T14:30:51.451Z,11.30
2023-03-01T14:32:55.925Z,11.25
2023-03-01T14:35:00.189Z,10.98
2023-03-01T14:37:12.506Z,9.95
2023-03-01T14:39:22.068Z,10.57
2023-03-01T14:41:27.960Z,9.90
2023-03-01T14:43:32.461Z,10.27
2023-03-01T14:45:35.162Z,10.82
2023-03-01T14:47:39.201Z,10.30
2023-03-01T14:49:42.460Z,9.93
2023-03-01T14:51:52.375Z,8.25
2023-03-01T14:53:55.856Z,9.55
2023-03-01T14:56:04.028Z,9.52
2023-03-01T14:58:11.474Z,10.68
2023-03-01T15:00:21.737Z,9.85
2023-03-01T15:02:27.317Z,10.40
2023-03-01T15:04:32.060Z,10.93
2023-03-01T15:06:34.900Z,9.40
2023-03-01T15:08:39.007Z,10.48
2023-03-01T15:10:44.490Z,9.95
2023-03-01T15:12:48.607Z,10.73
2023-03-01T15:15:03.251Z,10.15
2023-03-01T15:17:07.993Z,10.23
2023-03-01T15:19:20.165Z,10.48
2023-03-01T15:21:26.447Z,9.23
2023-03-01T15:23:31.988Z,9.27
2023-03-01T15:25:35.632Z,9.10
2023-03-01T15:27:43.130Z,10.07
2023-03-01T15:29:51.976Z,8.23
2023-03-01T15:32:00.465Z,9.07
2023-03-01T15:34:12.118Z,10.15
2023-03-01T15:36:39.478Z,10.23
2023-03-01T15:38:55.297Z,8.57
2023-03-01T15:40:59.734Z,8.52
2023-03-01T15:43:04.509Z,9.55
2023-03-01T15:45:13.129Z,9.80
2023-03-01T15:47:30.997Z,9.00
2023-03-01T15:49:53.945Z,9.35
2023-03-01T15:51:57.832Z,8.90
2023-03-01T15:54:02.923Z,9.73
2023-03-01T15:56:08.373Z,10.10
2023-03-01T15:58:15.491Z,9.10
2023-03-01T16:00:20.657Z,10.77
2023-03-01T16:02:24.417Z,9.40
2023-03-01T16:04:27.165Z,9.05
2023-03-01T16:06:30.023Z,8.85
2023-03-01T16:08:32.892Z,9.77
2023-03-01T16:10:36.939Z,10.73
2023-03-01T16:12:40.127Z,8.82
2023-03-01T16:14:42.866Z,9.50
2023-03-01T16:16:49.013Z,10.68
2023-03-01T16:18:54.296Z,9.50
2023-03-01T16:20:57.978Z,10.88
2023-03-01T16:23:02.009Z,10.15
2023-03-01T16:25:05.095Z,9.63
2023-03-01T16:27:08.000Z,9.63
2023-03-01T16:29:10.771Z,9.27
2023-03-01T16:31:13.929Z,10.95
2023-03-01T16:33:26.549Z,10.02
2023-03-01T16:35:35.650Z,10.25
2023-03-01T16:37:38.964Z,9.88
2023-03-01T16:39:41.602Z,10.65
2023-03-01T16:41:44.235Z,8.90
2023-03-01T16:43:48.552Z,10.20
2023-03-01T16:45:51.536Z,9.82
2023-03-01T16:47:56.029Z,9.20
2023-03-01T16:50:00.330Z,9.85
2023-03-01T16:52:03.078Z,9.38
2023-03-01T16:54:05.893Z,9.32
2023-03-01T16:56:10.919Z,11.10
2023-03-01T16:58:13.646Z,8.73
2023-03-01T17:00:18.711Z,9.80
2023-03-01T17:02:22.035Z,10.38
2023-03-01T17:04:24.774Z,9.70
2023-03-01T17:06:28.825Z,9.40
2023-03-01T17:08:31.688Z,9.05
2023-03-01T17:10:35.342Z,9.43
2023-03-01T17:12:38.073Z,8.65
2023-03-01T17:14:42.355Z,9.30
2023-03-01T17:16:46.038Z,10.55
2023-03-01T17:18:49.202Z,8.95
2023-03-01T17:20:51.927Z,8.88
2023-03-01T17:22:56.001Z,9.05
2023-03-01T17:24:58.725Z,9.32
2023-03-01T17:27:01.548Z,9.55
2023-03-01T17:29:05.135Z,9.88
2023-03-01T17:31:08.972Z,8.88
2023-03-01T17:33:12.074Z,8.80
2023-03-01T17:35:14.830Z,9.95
2023-03-01T17:37:17.575Z,8.85
2023-03-01T17:39:25.764Z,9.38
2023-03-01T17:41:28.754Z,8.65
2023-03-01T17:43:34.382Z,9.50
2023-03-01T17:45:38.146Z,8.73
2023-03-01T17:47:40.909Z,9.02
2023-03-01T17:49:43.726Z,9.43
2023-03-01T17:51:46.564Z,9.80
2023-03-01T17:53:49.232Z,9.27
2023-03-01T17:56:01.324Z,10.00
2023-03-01T17:58:04.740Z,9.98
2023-03-01T18:00:11.682Z,9.70
2023-03-01T18:02:14.702Z,10.13
2023-03-01T18:04:18.425Z,10.18
2023-03-01T18:06:24.676Z,10.25
2023-03-01T18:08:27.407Z,9.63
2023-03-01T18:10:30.319Z,10.30
2023-03-01T18:12:34.555Z,10.68
2023-03-01T18:14:37.656Z,10.48
2023-03-01T18:16:40.781Z,10.25
2023-03-01T18:18:45.143Z,9.52
2023-03-01T18:20:56.895Z,9.65
2023-03-01T18:22:59.814Z,9.63
2023-03-01T18:25:02.676Z,8.75
2023-03-01T18:27:05.586Z,10.55
2023-03-01T18:29:10.635Z,9.55
2023-03-01T18:31:13.508Z,9.98
2023-03-01T18:33:16.254Z,10.88
2023-03-01T18:35:19.271Z,9.05
2023-03-01T18:37:22.105Z,10.00
2023-03-01T18:39:25.726Z,10.23
2023-03-01T18:41:30.518Z,9.63
2023-03-01T18:43:33.547Z,10.15
2023-03-01T18:45:37.743Z,11.07
2023-03-01T18:47:40.545Z,10.02
2023-03-01T18:49:43.889Z,9.95
2023-03-01T18:51:46.674Z,8.80
2023-03-01T18:53:49.427Z,9.75
2023-03-01T18:55:52.187Z,10.63
2023-03-01T18:57:55.883Z,9.70
2023-03-01T18:59:58.561Z,10.18
2023-03-01T19:02:02.818Z,10.02
2023-03-01T19:04:06.528Z,10.63
2023-03-01T19:06:09.455Z,9.75
2023-03-01T19:08:12.194Z,11.13
2023-03-01T19:10:14.836Z,10.15
2023-03-01T19:12:17.530Z,10.55
2023-03-01T19:14:20.226Z,9.73
2023-03-01T19:16:24.974Z,10.70
2023-03-01T19:18:29.072Z,9.52
2023-03-01T19:20:31.773Z,10.27
2023-03-01T19:22:34.438Z,9.25
2023-03-01T19:24:37.252Z,9.98
2023-03-01T19:26:41.715Z,10.75
2023-03-01T19:28:44.720Z,10.63
2023-03-01T19:30:47.442Z,9.30
2023-03-01T19:32:52.292Z,10.80
2023-03-01T19:34:56.288Z,10.30
2023-03-01T19:36:59.003Z,10.10
2023-03-01T19:39:02.883Z,10.98
2023-03-01T19:41:06.732Z,10.50
2023-03-01T19:43:09.429Z,10.90
2023-03-01T19:45:12.883Z,10.93
2023-03-01T19:47:16.279Z,9.70
2023-03-01T19:49:18.940Z,9.88
2023-03-01T19:51:23.077Z,10.43
2023-03-01T19:53:26.035Z,10.50
2023-03-01T19:55:28.712Z,9.77
2023-03-01T19:57:32.033Z,9.23
2023-03-01T19:59:34.821Z,9.32
2023-03-01T20:01:38.018Z,10.20
2023-03-01T20:03:40.870Z,10.90
2023-03-01T20:05:44.184Z,11.27
2023-03-01T20:07:48.274Z,11.02
2023-03-01T20:09:50.881Z,10.60
2023-03-01T20:11:53.594Z,9.60
2023-03-01T20:13:56.478Z,10.18
2023-03-01T20:15:59.219Z,9.57
2023-03-01T20:18:01.942Z,9.60
2023-03-01T20:20:05.279Z,9.43
2023-03-01T20:22:08.088Z,9.90
2023-03-01T20:24:12.156Z,10.40
2023-03-01T20:26:19.108Z,10.88
2023-03-01T20:30:24.928Z,9.65
2023-03-01T20:32:27.946Z,11.65
2023-03-01T20:34:30.676Z,10.75
2023-03-01T20:36:34.122Z,10.43
2023-03-01T20:38:39.427Z,9.43
2023-03-01T20:40:43.468Z,10.77
2023-03-01T20:42:46.097Z,10.02
2023-03-01T20:44:48.770Z,11.13
2023-03-01T20:46:51.610Z,11.40
2023-03-01T20:48:54.803Z,11.48
2023-03-01T20:51:01.594Z,10.40
2023-03-01T20:55:08.207Z,9.88
2023-03-01T20:57:12.272Z,11.02
2023-03-01T20:59:15.953Z,10.02
2023-03-01T21:01:20.996Z,9.90
2023-03-01T21:03:23.775Z,10.88
2023-03-01T21:05:26.446Z,11.02
2023-03-01T21:07:29.094Z,11.48
2023-03-01T21:09:31.726Z,11.15
2023-03-01T21:11:34.567Z,10.43
2023-03-01T21:13:38.671Z,11.18
2023-03-01T21:15:41.359Z,11.23
2023-03-01T21:17:44.051Z,11.27
2023-03-01T21:19:46.812Z,10.85
2023-03-01T21:21:49.523Z,11.43
2023-03-01T21:23:52.349Z,11.35
2023-03-01T21:26:03.043Z,11.35
2023-03-01T21:28:05.937Z,11.52
2023-03-01T21:30:11.644Z,11.73
2023-03-01T21:32:15.478Z,11.32
2023-03-01T21:34:18.292Z,10.10
2023-03-01T21:36:21.989Z,11.32
2023-03-01T21:38:24.746Z,11.32
2023-03-01T21:40:27.651Z,10.85
2023-03-01T21:42:31.954Z,10.50
2023-03-01T21:44:34.790Z,9.82
2023-03-01T21:46:40.296Z,10.23
2023-03-01T21:48:45.240Z,11.50
2023-03-01T21:50:55.767Z,10.73
2023-03-01T21:52:58.505Z,11.57
2023-03-01T21:55:02.984Z,11.07
2023-03-01T21:57:05.619Z,11.57
2023-03-01T21:59:09.555Z,10.57
2023-03-01T22:01:14.505Z,9.90
2023-03-01T22:03:18.732Z,10.52
2023-03-01T22:05:21.453Z,11.50
2023-03-01T22:07:24.540Z,11.18
2023-03-01T22:09:27.414Z,11.20
2023-03-01T22:11:30.485Z,10.40
2023-03-01T22:13:33.110Z,10.93
2023-03-01T22:15:35.842Z,11.18
2023-03-01T22:17:38.537Z,11.85
2023-03-01T22:19:42.596Z,10.73
2023-03-01T22:21:49.096Z,11.93
2023-03-01T22:23:52.989Z,11.13
2023-03-01T22:25:55.799Z,11.15
2023-03-01T22:27:58.644Z,11.88
2023-03-01T22:30:01.340Z,11.27
2023-03-01T22:32:04.823Z,10.77
2023-03-01T22:34:08.042Z,10.63
2023-03-01T22:36:12.326Z,12.18
2023-03-01T22:38:15.085Z,12.00
2023-03-01T22:40:17.934Z,11.43
2023-03-01T22:42:21.034Z,12.32
2023-03-01T22:44:24.694Z,11.82
2023-03-01T22:46:28.544Z,11.45
2023-03-01T22:48:31.254Z,11.40
2023-03-01T22:50:34.026Z,12.55
2023-03-01T22:52:39.639Z,12.05
2023-03-01T22:54:42.394Z,10.70
2023-03-01T22:56:46.423Z,11.30
2023-03-01T22:58:49.775Z,12.00
2023-03-01T23:00:52.501Z,11.85
2023-03-01T23:02:55.489Z,12.00
2023-03-01T23:04:58.284Z,11.50
2023-03-01T23:07:00.914Z,12.00
2023-03-01T23:09:06.786Z,11.93
2023-03-01T23:11:12.570Z,10.35
2023-03-01T23:13:15.324Z,12.80
2023-03-01T23:15:18.034Z,11.70
2023-03-01T23:17:20.808Z,11.35
2023-03-01T23:19:23.797Z,12.85
2023-03-01T23:21:27.024Z,11.70
2023-03-01T23:23:29.689Z,11.32
2023-03-01T23:25:33.730Z,12.60
2023-03-01T23:27:37.513Z,11.32
2023-03-01T23:29:40.291Z,11.95
2023-03-01T23:31:42.948Z,11.52
2023-03-01T23:33:46.888Z,12.05
2023-03-01T23:35:49.616Z,13.70
2023-03-01T23:37:52.376Z,12.65
2023-03-01T23:39:55.010Z,12.02
2023-03-01T23:41:59.090Z,11.40
2023-03-01T23:44:03.610Z,12.52
2023-03-01T23:46:06.847Z,12.57
2023-03-01T23:48:11.162Z,11.40
2023-03-01T23:50:13.922Z,12.30
2023-03-01T23:52:17.413Z,12.35
2023-03-01T23:54:21.841Z,13.15
2023-03-01T23:56:26.765Z,12.23
2023-03-01T23:58:30.974Z,11.55
